Time;durP1;ratioP1;P1;durP2;ratioP2;P2;SDS_P1;SDS_P2;PMS_P1;PMS_P2;Temp;Humidity;BMP_temperature;BMP_pressure;BME280_temperature;BME280_humidity;BME280_pressure;Samples;Min_cycle;Max_cycle;Signal;HPM_P1;HPM_P2
2022/12/16 00:01:55;;;;;;;29.60;17.73;;;0.10;99.90;;;;;;5092799;28;20047;-72
2022/12/16 00:04:20;;;;;;;28.98;17.70;;;0.60;99.90;;;;;;5091089;28;20712;-72
2022/12/16 00:06:46;;;;;;;31.50;18.08;;;0.10;99.90;;;;;;5085463;28;20063;-73
2022/12/16 00:09:12;;;;;;;32.90;17.70;;;0.10;99.90;;;;;;5087970;28;20074;-72
2022/12/16 00:11:37;;;;;;;28.42;17.40;;;0.10;99.90;;;;;;5073861;28;20050;-72
2022/12/16 00:14:03;;;;;;;26.58;16.70;;;0.20;99.90;;;;;;5093104;28;20472;-72
2022/12/16 00:16:29;;;;;;;24.58;15.57;;;0.10;99.90;;;;;;5087137;28;21005;-73
2022/12/16 00:18:55;;;;;;;26.70;16.55;;;0.10;99.90;;;;;;5088746;28;20047;-72
2022/12/16 00:21:22;;;;;;;29.42;16.33;;;0.10;99.90;;;;;;5088172;28;20786;-72
2022/12/16 00:23:48;;;;;;;28.95;15.45;;;0.10;99.90;;;;;;5090406;28;20040;-73
2022/12/16 00:26:13;;;;;;;25.05;14.32;;;0.10;99.90;;;;;;5087718;28;20039;-72
2022/12/16 00:28:40;;;;;;;26.85;15.90;;;0.20;99.90;;;;;;5095979;28;20550;-72
2022/12/16 00:31:06;;;;;;;24.08;13.43;;;0.20;99.90;;;;;;5091052;28;20054;-73
2022/12/16 00:33:32;;;;;;;22.98;12.80;;;0.70;99.90;;;;;;5090326;28;20126;-72
2022/12/16 00:35:58;;;;;;;22.23;11.98;;;0.20;99.90;;;;;;5086905;28;20036;-72
2022/12/16 00:38:25;;;;;;;22.88;12.07;;;0.40;99.90;;;;;;5094521;28;20077;-72
2022/12/16 00:40:51;;;;;;;22.90;11.63;;;0.20;99.90;;;;;;5074253;28;20044;-72
2022/12/16 00:43:17;;;;;;;26.52;11.85;;;0.60;99.90;;;;;;5091850;28;20073;-72
2022/12/16 00:45:44;;;;;;;20.40;10.23;;;0.20;99.90;;;;;;5094504;28;20530;-72
2022/12/16 00:48:10;;;;;;;20.45;10.30;;;0.20;99.90;;;;;;5095850;27;20150;-71
2022/12/16 00:50:36;;;;;;;21.38;9.38;;;0.20;99.90;;;;;;5091355;28;20111;-71
2022/12/16 00:53:03;;;;;;;17.27;8.88;;;0.80;99.90;;;;;;5099397;28;20054;-72
2022/12/16 00:55:29;;;;;;;19.10;8.68;;;0.10;99.90;;;;;;5099022;27;20050;-72
2022/12/16 00:57:55;;;;;;;15.57;7.35;;;0.10;99.90;;;;;;5098144;27;20039;-71
2022/12/16 01:00:21;;;;;;;15.20;7.10;;;0.10;99.90;;;;;;5100253;28;20070;-72
2022/12/16 01:02:49;;;;;;;11.93;5.90;;;0.50;99.90;;;;;;5098313;28;21543;-71
2022/12/16 01:05:19;;;;;;;16.08;6.10;;;0.10;99.90;;;;;;5080767;27;20393;-71
2022/12/16 01:07:45;;;;;;;10.73;5.38;;;0.10;99.90;;;;;;5081229;28;20047;-71
2022/12/16 01:10:11;;;;;;;14.18;5.47;;;0.10;99.90;;;;;;5094955;28;20485;-72
2022/12/16 01:12:37;;;;;;;12.02;5.53;;;0.10;99.90;;;;;;5099308;28;20039;-71
2022/12/16 01:15:05;;;;;;;12.48;4.88;;;0.10;99.90;;;;;;5094778;27;20046;-71
2022/12/16 01:17:31;;;;;;;14.90;5.03;;;0.10;99.90;;;;;;5096756;27;20446;-70
2022/12/16 01:19:57;;;;;;;11.98;5.15;;;0.10;99.90;;;;;;5094319;28;20477;-71
2022/12/16 01:22:23;;;;;;;16.77;5.85;;;1.00;99.90;;;;;;5096909;28;20043;-71
2022/12/16 01:24:49;;;;;;;16.30;5.43;;;0.20;99.90;;;;;;5092495;27;20047;-72
2022/12/16 01:27:15;;;;;;;13.10;4.63;;;0.10;99.90;;;;;;5085436;28;20077;-72
2022/12/16 01:29:42;;;;;;;11.65;5.30;;;0.10;99.90;;;;;;5092036;28;20048;-72
2022/12/16 01:32:14;;;;;;;15.73;4.90;;;0.30;99.90;;;;;;5082650;27;20044;-72
2022/12/16 01:34:41;;;;;;;12.63;5.30;;;0.40;99.90;;;;;;5087613;27;20039;-72
2022/12/16 01:37:11;;;;;;;11.38;5.07;;;0.20;99.90;;;;;;5104226;27;20055;-71
2022/12/16 01:39:37;;;;;;;15.05;5.57;;;1.00;99.90;;;;;;5094644;28;20043;-71
2022/12/16 01:42:04;;;;;;;12.40;5.32;;;0.30;99.90;;;;;;5109779;27;20083;-71
2022/12/16 01:44:30;;;;;;;17.17;5.30;;;0.30;99.90;;;;;;5090498;27;20103;-72
2022/12/16 01:47:00;;;;;;;12.93;5.32;;;0.20;99.90;;;;;;5110912;27;20036;-71
2022/12/16 01:49:40;;;;;;;16.45;4.82;;;0.30;99.90;;;;;;5089721;27;20061;-72
2022/12/16 01:52:11;;;;;;;12.60;4.38;;;0.40;99.90;;;;;;5100227;27;20127;-71
2022/12/16 01:54:41;;;;;;;13.73;4.75;;;0.70;99.90;;;;;;5108937;27;20123;-72
2022/12/16 01:57:12;;;;;;;10.35;4.50;;;0.70;99.90;;;;;;5103906;27;20052;-71
2022/12/16 01:59:41;;;;;;;12.60;4.88;;;0.30;99.90;;;;;;5102295;27;20174;-72
2022/12/16 02:02:08;;;;;;;13.73;5.13;;;0.30;99.90;;;;;;5103710;27;20049;-72
2022/12/16 02:04:34;;;;;;;15.50;5.05;;;0.30;99.90;;;;;;5101053;27;20070;-72
2022/12/16 02:07:00;;;;;;;13.07;5.32;;;0.30;99.90;;;;;;5090641;28;20055;-72
2022/12/16 02:09:26;;;;;;;13.80;5.45;;;0.30;99.90;;;;;;5097100;28;20043;-72
2022/12/16 02:12:06;;;;;;;14.23;5.43;;;0.30;99.90;;;;;;5090504;27;20035;-72
2022/12/16 02:14:46;;;;;;;14.00;5.00;;;0.30;99.90;;;;;;5102929;27;20043;-71
2022/12/16 02:17:27;;;;;;;15.20;5.00;;;0.30;99.90;;;;;;5093454;28;20155;-72
2022/12/16 02:20:26;;;;;;;10.30;5.30;;;0.80;99.90;;;;;;5093577;28;20104;-71
2022/12/16 02:23:30;;;;;;;11.77;5.00;;;0.40;99.90;;;;;;5075352;28;20039;-71
2022/12/16 02:26:34;;;;;;;10.98;4.68;;;0.40;99.90;;;;;;4999382;28;20045;-72
2022/12/16 02:29:49;;;;;;;11.27;4.88;;;0.50;99.90;;;;;;5082232;28;20047;-72
2022/12/16 02:32:41;;;;;;;17.65;6.20;;;0.50;99.90;;;;;;5078115;28;20127;-71
2022/12/16 02:35:40;;;;;;;11.18;5.38;;;0.50;99.90;;;;;;5051663;28;20631;-72
2022/12/16 02:38:28;;;;;;;12.52;5.70;;;0.50;99.90;;;;;;5094009;27;20629;-72
2022/12/16 02:41:10;;;;;;;13.27;5.55;;;0.50;99.90;;;;;;5097685;27;20189;-71
2022/12/16 02:43:53;;;;;;;10.18;5.45;;;0.50;99.90;;;;;;5098680;28;20039;-72
2022/12/16 02:46:26;;;;;;;15.13;6.90;;;0.60;99.90;;;;;;5089768;28;20457;-72
2022/12/16 02:48:52;;;;;;;11.93;5.65;;;0.60;99.90;;;;;;5073345;28;20051;-73
2022/12/16 02:51:20;;;;;;;14.98;6.38;;;0.60;99.90;;;;;;5085262;28;20047;-72
2022/12/16 02:53:47;;;;;;;14.40;6.15;;;0.80;99.90;;;;;;5083675;28;20040;-72
2022/12/16 02:56:49;;;;;;;12.90;5.90;;;0.60;99.90;;;;;;5091585;27;20035;-72
2022/12/16 02:59:17;;;;;;;;;;;0.60;99.90;;;;;;5097236;27;20036;-72
2022/12/16 03:02:15;;;;;;;12.27;5.70;;;0.60;99.90;;;;;;5092536;27;20018;-73
2022/12/16 03:04:48;;;;;;;12.63;5.95;;;0.80;99.90;;;;;;5089656;28;20428;-73
2022/12/16 03:07:17;;;;;;;12.32;5.65;;;0.60;99.90;;;;;;5100233;27;20131;-72
2022/12/16 03:09:45;;;;;;;12.68;6.55;;;0.60;99.90;;;;;;5088885;28;20568;-72
2022/12/16 03:12:14;;;;;;;17.05;6.38;;;0.50;99.90;;;;;;5103126;27;20117;-72
2022/12/16 03:14:43;;;;;;;13.02;6.15;;;0.50;99.90;;;;;;5084858;28;20269;-72
2022/12/16 03:17:10;;;;;;;16.58;6.35;;;0.80;99.90;;;;;;5102213;27;20430;-72
2022/12/16 03:19:39;;;;;;;17.13;6.10;;;1.50;99.90;;;;;;5099626;28;20059;-72
2022/12/16 03:22:20;;;;;;;10.75;5.80;;;0.50;99.90;;;;;;5101241;27;20136;-72
2022/12/16 03:24:47;;;;;;;13.50;5.95;;;0.60;99.90;;;;;;5095459;28;20051;-74
2022/12/16 03:27:22;;;;;;;10.93;5.88;;;0.60;99.90;;;;;;5101846;27;20066;-72
2022/12/16 03:30:01;;;;;;;11.98;6.15;;;0.60;99.90;;;;;;5079554;28;20314;-72
2022/12/16 03:32:29;;;;;;;13.15;5.70;;;0.60;99.90;;;;;;5084559;28;20614;-73
2022/12/16 03:35:19;;;;;;;12.07;5.93;;;0.60;99.90;;;;;;5089006;27;20389;-72
2022/12/16 03:37:47;;;;;;;12.55;5.65;;;0.70;99.90;;;;;;5086802;28;20052;-72
2022/12/16 03:40:13;;;;;;;12.65;6.15;;;0.60;99.90;;;;;;5089861;28;20446;-72
2022/12/16 03:42:41;;;;;;;10.90;5.65;;;0.60;99.90;;;;;;5087918;28;20044;-72
2022/12/16 03:45:11;;;;;;;11.80;5.45;;;0.70;99.90;;;;;;5083779;27;20057;-72
2022/12/16 03:47:37;;;;;;;13.65;5.57;;;0.60;99.90;;;;;;5070287;28;20047;-73
2022/12/16 03:50:03;;;;;;;12.25;5.97;;;0.60;99.90;;;;;;5092766;28;20523;-72
2022/12/16 03:52:29;;;;;;;13.43;5.68;;;0.60;99.90;;;;;;5085169;28;20058;-73
2022/12/16 03:54:56;;;;;;;17.42;6.47;;;0.70;99.90;;;;;;5058122;28;20677;-73
2022/12/16 03:57:22;;;;;;;12.85;6.25;;;0.70;99.90;;;;;;5081661;28;20087;-73
2022/12/16 03:59:48;;;;;;;11.30;6.50;;;0.80;99.90;;;;;;5070872;28;20052;-73
2022/12/16 04:02:14;;;;;;;16.88;7.47;;;0.80;99.90;;;;;;5066381;28;20048;-73
2022/12/16 04:04:39;;;;;;;20.27;9.65;;;0.80;99.90;;;;;;5083172;28;20054;-73
2022/12/16 04:07:21;;;;;;;19.77;9.15;;;1.50;99.90;;;;;;5047811;28;20587;-72
2022/12/16 04:09:48;;;;;;;22.35;11.60;;;0.30;99.90;;;;;;5071600;28;20044;-73
2022/12/16 04:26:16;;;;;;;45.88;24.83;;;1.00;99.90;;;;;;5058871;28;20079;-77
2022/12/16 04:28:42;;;;;;;45.35;25.65;;;1.30;99.90;;;;;;5060509;28;20158;-78
2022/12/16 04:31:08;;;;;;;46.58;26.42;;;1.10;99.90;;;;;;5046650;28;20269;-77
